Time;durP1;ratioP1;P1;durP2;ratioP2;P2;SDS_P1;SDS_P2;PMS_P1;PMS_P2;Temp;Humidity;BMP_temperature;BMP_pressure;BME280_temperature;BME280_humidity;BME280_pressure;Samples;Min_cycle;Max_cycle;Signal;HPM_P1;HPM_P2
2022/12/13 00:02:01;;;;;;;15.73;8.63;;;-9.30;99.90;-9.20;93027.00;;;;7396669;19;20129;-76
2022/12/13 00:04:38;;;;;;;17.03;8.83;;;-9.30;99.90;-9.30;92996.00;;;;7395396;19;20612;-75
2022/12/13 00:07:06;;;;;;;17.03;8.77;;;-9.30;99.90;-9.20;93033.00;;;;7395999;19;20448;-75
2022/12/13 00:09:33;;;;;;;19.43;9.00;;;-9.30;99.90;-9.30;92998.00;;;;7394729;19;20136;-76
2022/12/13 00:12:13;;;;;;;16.10;8.53;;;-9.40;99.90;-9.30;92954.00;;;;7393741;19;20155;-76
2022/12/13 00:14:40;;;;;;;16.30;9.03;;;-9.40;99.90;-9.40;92994.00;;;;7390669;19;20233;-76
2022/12/13 00:17:13;;;;;;;15.63;8.50;;;-9.50;99.90;-9.30;93002.00;;;;7398190;19;20212;-76
2022/12/13 00:19:40;;;;;;;15.90;9.03;;;-9.40;99.90;-9.20;93029.00;;;;7402366;19;20747;-76
2022/12/13 00:22:07;;;;;;;14.63;9.13;;;-9.40;99.90;-9.10;92971.00;;;;7401752;19;20490;-76
2022/12/13 00:24:42;;;;;;;20.07;10.07;;;-9.30;99.90;-9.10;93041.00;;;;7401690;19;20141;-76
2022/12/13 00:27:12;;;;;;;16.47;10.60;;;-9.30;1.00;-9.20;92991.00;;;;7403673;19;20589;-76
2022/12/13 00:29:39;;;;;;;19.83;10.17;;;-9.30;99.90;-9.10;93026.00;;;;7403417;19;20628;-76
2022/12/13 00:32:12;;;;;;;17.43;9.03;;;-9.30;99.90;-9.10;92983.00;;;;7401182;19;20584;-76
2022/12/13 00:34:40;;;;;;;19.03;9.93;;;-9.20;99.90;-9.20;92992.00;;;;7402047;19;20136;-76
2022/12/13 00:37:07;;;;;;;20.27;9.07;;;-9.20;99.90;-9.30;92972.00;;;;7402861;19;20146;-76
2022/12/13 00:39:40;;;;;;;19.30;9.37;;;-9.30;99.90;-9.40;92979.00;;;;7401370;19;20142;-76
2022/12/13 00:42:07;;;;;;;17.37;9.70;;;-9.40;99.90;-9.40;92960.00;;;;7402316;19;20463;-76
2022/12/13 00:44:34;;;;;;;19.37;9.40;;;-9.40;99.90;-9.40;92978.00;;;;7403001;19;20600;-75
2022/12/13 00:47:08;;;;;;;16.23;10.10;;;-9.40;99.90;-9.40;93005.00;;;;7403418;19;20137;-76
2022/12/13 00:49:36;;;;;;;19.87;10.00;;;-9.50;99.90;-9.40;92953.00;;;;7400964;19;20189;-76
2022/12/13 00:52:03;;;;;;;17.83;10.10;;;-9.50;99.90;-9.50;92996.00;;;;7402615;19;20147;-76
2022/12/13 00:54:36;;;;;;;24.87;10.03;;;-9.50;99.90;-9.30;92946.00;;;;7400976;19;20165;-76
2022/12/13 00:57:04;;;;;;;22.03;10.53;;;-9.50;99.90;-9.20;92953.00;;;;7402614;19;20153;-76
2022/12/13 00:59:31;;;;;;;19.40;10.70;;;-9.40;1.00;-9.40;92970.00;;;;7402566;19;20126;-76
2022/12/13 01:02:04;;;;;;;19.63;11.20;;;-9.40;1.00;-9.30;92974.00;;;;7401346;19;20145;-76
2022/12/13 01:04:32;;;;;;;19.93;11.23;;;-9.50;1.00;-9.30;92974.00;;;;7402486;19;20667;-76
2022/12/13 01:06:59;;;;;;;21.10;11.63;;;-9.40;1.00;-9.20;93004.00;;;;7400542;19;20142;-76
2022/12/13 01:09:33;;;;;;;23.80;12.90;;;-9.30;1.00;-9.20;92960.00;;;;7401531;19;20577;-77
2022/12/13 01:12:12;;;;;;;23.37;12.17;;;-9.20;1.00;-9.10;93002.00;;;;7394936;19;20181;-76
2022/12/13 01:14:52;;;;;;;24.27;13.30;;;-9.20;1.00;-9.00;92973.00;;;;7394688;19;20198;-76
2022/12/13 01:17:22;;;;;;;23.23;12.93;;;-9.10;1.00;-9.00;92990.00;;;;7399718;19;20133;-76
2022/12/13 01:19:56;;;;;;;27.03;13.07;;;-9.00;18.50;-9.00;92992.00;;;;7400720;19;20121;-76
2022/12/13 01:22:22;;;;;;;27.70;14.63;;;-8.90;42.50;-9.00;92985.00;;;;7401359;19;20627;-76
2022/12/13 01:24:50;;;;;;;29.17;14.53;;;-8.90;39.60;-9.00;92993.00;;;;7399703;19;20141;-75
2022/12/13 01:27:23;;;;;;;24.77;13.07;;;-8.90;29.10;-9.10;92936.00;;;;7399969;19;20134;-75
2022/12/13 01:29:50;;;;;;;24.03;13.10;;;-8.90;11.80;-9.20;92928.00;;;;7400394;19;20168;-76
2022/12/13 01:32:18;;;;;;;26.00;13.10;;;-9.00;1.00;-9.20;93004.00;;;;7400929;19;20145;-76
2022/12/13 01:34:52;;;;;;;26.50;13.73;;;-9.00;1.00;-9.20;92960.00;;;;7400392;19;20133;-76
2022/12/13 01:37:19;;;;;;;23.40;13.27;;;-9.10;1.00;-9.30;92978.00;;;;7399554;19;20117;-75
2022/12/13 01:39:51;;;;;;;27.00;12.93;;;-9.20;1.00;-9.40;92911.00;;;;7400097;19;20130;-75
2022/12/13 01:42:25;;;;;;;24.07;12.37;;;-9.20;1.00;-9.40;92947.00;;;;7399802;19;20126;-75
2022/12/13 01:44:58;;;;;;;28.07;12.90;;;-9.30;1.00;-9.50;92988.00;;;;7399611;19;20136;-76
2022/12/13 01:47:47;;;;;;;26.13;12.90;;;-9.40;1.00;-9.50;92943.00;;;;7399828;19;20133;-75
2022/12/13 01:50:36;;;;;;;24.80;12.67;;;-9.40;1.00;-9.60;92943.00;;;;7400159;19;20214;-75
2022/12/13 01:53:07;;;;;;;24.93;12.73;;;-9.50;1.00;-9.60;92984.00;;;;7400158;19;20144;-75
2022/12/13 01:55:45;;;;;;;18.17;11.13;;;-9.60;1.00;-9.80;92982.00;;;;7400259;19;20125;-76
2022/12/13 01:58:13;;;;;;;23.73;12.37;;;-9.70;1.00;-9.80;92925.00;;;;7398560;19;20175;-76
2022/12/13 02:00:42;;;;;;;21.60;12.27;;;-9.80;1.00;-9.80;92929.00;;;;7399118;19;20605;-74
2022/12/13 02:03:19;;;;;;;24.60;12.97;;;-9.80;1.00;-9.80;92958.00;;;;7399930;19;20169;-74
2022/12/13 02:06:15;;;;;;;23.80;13.37;;;-9.90;99.90;-10.00;92958.00;;;;7398888;19;20148;-74
2022/12/13 02:08:49;;;;;;;22.47;11.77;;;-10.00;99.90;-10.00;92934.00;;;;7399727;19;20129;-73
2022/12/13 02:11:23;;;;;;;29.30;12.40;;;-10.00;99.90;-9.90;92955.00;;;;7397669;19;20164;-73
2022/12/13 02:14:04;;;;;;;27.23;12.60;;;-10.00;1.00;-10.00;92908.00;;;;7397532;19;20584;-74
2022/12/13 02:16:52;;;;;;;22.13;12.23;;;-10.10;1.40;-9.80;92971.00;;;;7398449;19;20145;-73
2022/12/13 02:19:52;;;;;;;26.93;12.67;;;-10.00;1.00;-9.90;92976.00;;;;7398957;19;20141;-73
2022/12/13 02:22:53;;;;;;;26.53;12.10;;;-10.00;1.00;-9.90;92962.00;;;;7398477;19;20197;-74
2022/12/13 02:26:17;;;;;;;24.03;12.60;;;-10.00;1.00;-9.70;92956.00;;;;7398991;19;20148;-74
2022/12/13 02:29:08;;;;;;;34.50;14.13;;;-9.90;1.00;-9.80;92966.00;;;;7398580;19;20160;-74
2022/12/13 02:32:14;;;;;;;26.30;13.90;;;-10.00;1.00;-10.00;92958.00;;;;7397782;19;20140;-73
2022/12/13 02:34:57;;;;;;;28.90;13.77;;;-10.00;1.00;-10.00;92958.00;;;;7398321;19;20139;-74
2022/12/13 02:38:13;;;;;;;27.07;13.50;;;-10.00;1.00;-9.80;92961.00;;;;7398798;19;20141;-74
2022/12/13 02:41:03;;;;;;;27.87;13.80;;;-10.00;1.00;-9.60;92961.00;;;;7394071;19;20176;-74
2022/12/13 02:43:52;;;;;;;29.87;12.40;;;-9.90;1.00;-9.60;92954.00;;;;7398222;19;20835;-74
2022/12/13 02:46:34;;;;;;;24.63;13.17;;;-9.80;1.00;-9.60;92914.00;;;;7398047;19;20147;-74
2022/12/13 02:49:10;;;;;;;27.23;13.40;;;-9.80;1.00;-9.40;92926.00;;;;7398221;19;20209;-73
2022/12/13 02:51:38;;;;;;;27.63;13.97;;;-9.70;1.00;-9.50;92956.00;;;;7397885;19;20216;-73
2022/12/13 02:54:05;;;;;;;25.27;13.63;;;-9.60;1.00;-9.50;92923.00;;;;7396556;19;20208;-73
2022/12/13 02:56:38;;;;;;;27.90;14.03;;;-9.60;1.00;-9.50;92904.00;;;;7397751;19;20150;-74
2022/12/13 02:59:13;;;;;;;23.30;12.63;;;-9.60;1.00;-9.60;92901.00;;;;7398076;19;20164;-74
2022/12/13 03:02:17;;;;;;;24.37;11.83;;;-9.70;1.00;-9.70;92900.00;;;;7396928;19;20129;-74
2022/12/13 03:08:30;;;;;;;22.57;12.20;;;-9.70;1.00;-9.60;92913.00;;;;7397621;19;20143;-73
2022/12/13 03:11:13;;;;;;;23.07;12.60;;;-9.70;1.00;-9.60;92922.00;;;;7396785;19;20713;-74
2022/12/13 03:14:06;;;;;;;26.77;12.30;;;-9.70;1.00;-9.60;92867.00;;;;7394871;19;20406;-73
2022/12/13 03:16:51;;;;;;;29.33;13.60;;;-9.60;1.00;-9.40;92901.00;;;;7396791;19;20469;-73
2022/12/13 03:19:25;;;;;;;25.00;11.93;;;-9.60;1.00;-9.50;92926.00;;;;7397145;19;20590;-73
2022/12/13 03:21:52;;;;;;;25.80;13.27;;;-9.60;1.00;-9.40;92924.00;;;;7397396;19;20635;-74
2022/12/13 03:24:20;;;;;;;23.97;12.83;;;-9.60;1.00;-9.50;92934.00;;;;7396188;19;20137;-74
2022/12/13 03:26:54;;;;;;;23.57;13.03;;;-9.60;1.00;-9.50;92932.00;;;;7396040;19;20141;-74
2022/12/13 03:29:21;;;;;;;25.03;12.63;;;-9.60;1.00;-9.60;92909.00;;;;7396564;19;20146;-73
2022/12/13 03:31:52;;;;;;;25.17;13.73;;;-9.70;99.90;-9.60;92882.00;;;;7396761;19;20137;-74
2022/12/13 03:34:25;;;;;;;34.47;13.47;;;-9.70;1.00;-9.70;92850.00;;;;7395496;19;20170;-74
2022/12/13 03:37:10;;;;;;;26.17;13.00;;;-9.70;99.90;-9.70;92873.00;;;;7397726;19;20130;-74
2022/12/13 03:39:44;;;;;;;21.60;11.83;;;-9.80;99.90;-9.70;92879.00;;;;7395920;19;20592;-74
2022/12/13 03:42:11;;;;;;;24.03;12.17;;;-9.80;99.90;-9.60;92847.00;;;;7396359;19;20479;-74
2022/12/13 03:44:38;;;;;;;26.73;14.63;;;-9.70;1.00;-9.70;92871.00;;;;7396421;19;20134;-74
2022/12/13 03:47:11;;;;;;;24.07;12.97;;;-9.70;1.00;-9.50;92848.00;;;;7395952;19;20150;-73
2022/12/13 03:49:38;;;;;;;24.73;13.73;;;-9.70;1.00;-9.50;92869.00;;;;7398085;19;20135;-74
2022/12/13 03:52:05;;;;;;;26.73;13.73;;;-9.70;1.00;-9.60;92858.00;;;;7399592;19;20126;-74
2022/12/13 03:54:39;;;;;;;29.70;14.13;;;-9.70;1.00;-9.70;92886.00;;;;7402588;19;20217;-73
2022/12/13 03:57:11;;;;;;;29.00;14.53;;;-9.70;1.00;-9.70;92866.00;;;;7404811;19;20140;-73
2022/12/13 03:59:37;;;;;;;30.97;14.43;;;-9.70;1.00;-9.80;92865.00;;;;7402654;19;20138;-74
2022/12/13 04:02:12;;;;;;;26.03;13.07;;;-9.80;1.00;-9.80;92885.00;;;;7403012;19;20172;-74
2022/12/13 04:04:56;;;;;;;23.43;13.13;;;-9.90;99.90;-9.90;92850.00;;;;7404146;19;20192;-75
2022/12/13 04:07:29;;;;;;;26.17;13.67;;;-9.90;99.90;-9.90;92883.00;;;;7404052;19;20125;-73
2022/12/13 04:10:01;;;;;;;28.23;14.03;;;-10.00;99.90;-9.90;92903.00;;;;7402855;19;20481;-75
2022/12/13 04:15:26;;;;;;;29.40;14.37;;;-10.00;99.90;-9.90;92878.00;;;;7397850;19;20531;-74
2022/12/13 04:17:53;;;;;;;22.97;12.77;;;-10.00;99.90;-9.80;92881.00;;;;7404150;19;20454;-74
2022/12/13 04:20:26;;;;;;;28.00;13.20;;;-9.90;1.00;-9.90;92913.00;;;;7402975;19;20652;-73
2022/12/13 04:22:53;;;;;;;23.67;13.07;;;-10.00;1.00;-9.90;92887.00;;;;7402617;19;20141;-73
2022/12/13 04:25:21;;;;;;;24.23;13.33;;;-9.90;1.00;-10.00;92881.00;;;;7401775;19;20164;-74
2022/12/13 04:27:54;;;;;;;29.97;14.13;;;-10.00;1.00;-10.00;92871.00;;;;7403014;19;20536;-73
2022/12/13 04:30:21;;;;;;;28.27;13.70;;;-10.00;1.00;-10.00;92928.00;;;;7402033;19;20503;-74
2022/12/13 04:32:48;;;;;;;26.67;14.27;;;-10.00;1.00;-10.00;92865.00;;;;7402103;19;20174;-74
2022/12/13 04:35:21;;;;;;;27.17;14.13;;;-10.00;1.00;-9.90;92875.00;;;;7401937;19;20145;-74
2022/12/13 04:37:48;;;;;;;27.60;14.43;;;-10.00;1.00;-9.90;92860.00;;;;7401854;19;20141;-73
2022/12/13 04:40:16;;;;;;;29.90;14.67;;;-9.90;1.00;-9.90;92859.00;;;;7401680;19;20144;-72
2022/12/13 04:42:49;;;;;;;27.13;13.47;;;-9.90;1.00;-10.00;92871.00;;;;7401336;19;20151;-74
2022/12/13 04:45:21;;;;;;;30.00;14.00;;;-10.00;1.00;-9.90;92887.00;;;;7402011;19;20120;-74
2022/12/13 04:47:49;;;;;;;24.20;13.50;;;-9.90;1.00;-9.90;92852.00;;;;7402213;19;20159;-73
2022/12/13 04:50:22;;;;;;;23.50;13.30;;;-9.90;1.00;-10.00;92872.00;;;;7402791;19;20145;-73
2022/12/13 04:52:50;;;;;;;28.93;14.50;;;-9.90;1.00;-10.00;92894.00;;;;7403623;19;20137;-74
2022/12/13 04:55:17;;;;;;;24.40;13.30;;;-9.90;1.00;-10.00;92857.00;;;;7399211;19;20611;-73
2022/12/13 04:57:51;;;;;;;27.50;13.90;;;-10.00;1.00;-10.10;92849.00;;;;7401472;19;20141;-73
2022/12/13 05:00:20;;;;;;;32.10;13.53;;;-10.10;1.00;-10.00;92851.00;;;;7401268;19;20596;-73
2022/12/13 05:02:47;;;;;;;26.97;13.10;;;-10.10;1.00;-10.10;92895.00;;;;7400670;19;20625;-73
2022/12/13 05:05:21;;;;;;;27.23;13.70;;;-10.20;1.00;-10.00;92883.00;;;;7402233;19;20153;-73
2022/12/13 05:07:48;;;;;;;22.97;12.87;;;-10.10;1.00;-10.00;92870.00;;;;7401143;19;20161;-74
2022/12/13 05:10:15;;;;;;;23.67;13.53;;;-10.10;1.00;-9.90;92846.00;;;;7400987;19;20600;-73
2022/12/13 05:13:08;;;;;;;27.73;13.83;;;-9.90;1.00;-9.80;92869.00;;;;7401856;19;20464;-73
2022/12/13 05:15:35;;;;;;;24.43;13.27;;;-9.90;1.00;-10.00;92836.00;;;;7397308;19;20145;-73
2022/12/13 05:18:09;;;;;;;28.33;14.03;;;-10.00;1.00;-10.00;92864.00;;;;7401393;19;20137;-74
2022/12/13 05:20:38;;;;;;;25.83;14.53;;;-10.00;1.00;-10.10;92861.00;;;;7400930;19;20592;-74
2022/12/13 05:23:06;;;;;;;29.47;14.63;;;-10.10;1.00;-10.10;92833.00;;;;7400147;19;20148;-73
2022/12/13 05:25:48;;;;;;;31.07;14.80;;;-10.10;99.90;-10.10;92852.00;;;;7400964;19;20189;-74
2022/12/13 05:28:16;;;;;;;28.50;13.97;;;-10.10;1.00;-10.20;92833.00;;;;7400556;19;20141;-74
2022/12/13 05:31:06;;;;;;;22.20;12.63;;;-10.20;99.90;-10.40;92827.00;;;;7400681;19;20168;-73
2022/12/13 05:33:48;;;;;;;25.83;13.50;;;-10.20;99.90;-10.20;92872.00;;;;7399576;19;20144;-73
2022/12/13 05:36:29;;;;;;;20.80;12.87;;;-10.30;99.90;-10.40;92858.00;;;;7402574;19;20144;-73
2022/12/13 05:38:56;;;;;;;25.20;13.70;;;-10.30;99.90;-10.30;92849.00;;;;7401781;19;20143;-73
2022/12/13 05:41:35;;;;;;;25.47;13.10;;;-10.40;99.90;-10.40;92854.00;;;;7400603;19;20209;-73
2022/12/13 05:44:02;;;;;;;24.03;12.57;;;-10.40;99.90;-10.40;92865.00;;;;7399993;19;20142;-73
2022/12/13 05:46:29;;;;;;;24.03;13.10;;;-10.40;99.90;-10.40;92875.00;;;;7399928;19;20149;-74
2022/12/13 05:49:07;;;;;;;28.40;13.07;;;-10.50;99.90;-10.60;92797.00;;;;7399008;19;20143;-74
2022/12/13 05:51:34;;;;;;;26.70;13.30;;;-10.50;99.90;-10.60;92820.00;;;;7399753;19;20233;-74
2022/12/13 05:54:01;;;;;;;27.47;13.33;;;-10.60;99.90;-10.60;92820.00;;;;7397773;19;20137;-74
2022/12/13 05:56:35;;;;;;;27.27;12.77;;;-10.70;99.90;-10.70;92848.00;;;;7400187;19;20141;-73
2022/12/13 05:59:02;;;;;;;23.70;12.83;;;-10.70;99.90;-10.60;92866.00;;;;7399494;19;20145;-73
2022/12/13 06:01:29;;;;;;;24.47;12.97;;;-10.70;99.90;-10.60;92795.00;;;;7399989;19;20137;-73
2022/12/13 06:04:10;;;;;;;25.83;13.50;;;-10.70;99.90;-10.60;92878.00;;;;7398758;19;20132;-74
2022/12/13 06:06:38;;;;;;;28.80;13.90;;;-10.70;99.90;-10.70;92833.00;;;;7401323;19;20610;-73
2022/12/13 06:09:17;;;;;;;24.47;13.17;;;-10.70;99.90;-10.80;92802.00;;;;7399016;19;20160;-74
2022/12/13 06:11:50;;;;;;;25.40;13.77;;;-10.80;99.90;-10.90;92827.00;;;;7395676;19;20812;-73
2022/12/13 06:14:27;;;;;;;27.13;13.93;;;-10.80;99.90;-10.70;92839.00;;;;7392752;19;20148;-73
2022/12/13 06:16:54;;;;;;;26.90;14.97;;;-10.80;99.90;-10.60;92821.00;;;;7400022;19;20129;-74
2022/12/13 06:19:22;;;;;;;26.23;13.87;;;-10.70;99.90;-10.60;92847.00;;;;7399174;19;20196;-74
2022/12/13 06:21:56;;;;;;;26.00;14.20;;;-10.70;99.90;-10.50;92871.00;;;;7398578;19;20463;-73
2022/12/13 06:24:23;;;;;;;24.67;13.53;;;-10.70;99.90;-10.70;92836.00;;;;7389463;19;20125;-74
2022/12/13 06:26:52;;;;;;;48.17;21.43;;;-10.70;99.90;-10.70;92818.00;;;;7397868;19;20148;-73
2022/12/13 06:29:26;;;;;;;26.13;13.97;;;-10.80;99.90;-10.60;92834.00;;;;7397799;19;20504;-73
2022/12/13 06:32:00;;;;;;;26.03;13.83;;;-10.80;99.90;-10.70;92800.00;;;;7400056;19;20153;-73
2022/12/13 06:34:35;;;;;;;29.10;15.20;;;-10.80;99.90;-10.70;92826.00;;;;7397085;19;20137;-73
2022/12/13 06:37:07;;;;;;;27.33;13.77;;;-10.80;99.90;-10.60;92853.00;;;;7400060;19;20133;-73
2022/12/13 06:39:41;;;;;;;39.73;13.70;;;-10.70;99.90;-10.60;92863.00;;;;7398005;19;20164;-73
2022/12/13 06:42:16;;;;;;;25.60;13.37;;;-10.70;99.90;-10.70;92866.00;;;;7395350;19;20145;-73
2022/12/13 06:44:51;;;;;;;20.93;12.17;;;-10.70;99.90;-10.70;92865.00;;;;7398123;19;20161;-72
2022/12/13 06:47:26;;;;;;;25.37;12.93;;;-10.80;99.90;-10.60;92865.00;;;;7399416;19;20254;-73
2022/12/13 06:50:00;;;;;;;34.40;14.83;;;-10.80;99.90;-10.60;92855.00;;;;7398755;19;20534;-73
2022/12/13 06:52:32;;;;;;;29.80;14.20;;;-10.80;99.90;-10.50;92831.00;;;;7398827;19;20140;-73
2022/12/13 06:54:59;;;;;;;23.40;12.10;;;-10.70;99.90;-10.50;92884.00;;;;7395313;19;20141;-72
2022/12/13 06:57:33;;;;;;;26.60;14.87;;;-10.70;99.90;-10.60;92832.00;;;;7398632;19;20628;-74
2022/12/13 07:00:02;;;;;;;27.17;13.93;;;-10.70;99.90;-10.70;92863.00;;;;7398995;19;20500;-73
2022/12/13 07:02:31;;;;;;;23.33;12.87;;;-10.70;99.90;-10.60;92866.00;;;;7399159;19;20204;-72
2022/12/13 07:05:08;;;;;;;27.63;13.57;;;-10.70;99.90;-10.60;92880.00;;;;7399258;19;20500;-72
2022/12/13 07:07:35;;;;;;;23.80;11.60;;;-10.80;99.90;-10.50;92854.00;;;;7397876;19;20139;-73
2022/12/13 07:10:03;;;;;;;20.57;11.73;;;-10.60;99.90;-10.40;92860.00;;;;7396281;19;20646;-73
2022/12/13 07:12:56;;;;;;;41.67;20.43;;;-10.60;99.90;-10.30;92850.00;;;;7392300;19;20220;-72
2022/12/13 07:15:32;;;;;;;24.97;14.13;;;-10.50;1.00;-10.40;92869.00;;;;7393901;19;20152;-73
2022/12/13 07:18:07;;;;;;;30.50;15.57;;;-10.50;99.90;-10.40;92895.00;;;;7397116;19;20600;-74
2022/12/13 07:20:34;;;;;;;26.40;13.70;;;-10.50;99.90;-10.30;92889.00;;;;7397181;19;20153;-72
2022/12/13 07:23:01;;;;;;;30.07;13.93;;;-10.50;99.90;-10.30;92854.00;;;;7396653;19;20137;-71
2022/12/13 07:25:36;;;;;;;25.33;16.60;;;-10.40;99.90;-10.20;92848.00;;;;7397200;19;20151;-73
2022/12/13 07:28:06;;;;;;;37.90;21.53;;;-10.40;99.90;-10.20;92896.00;;;;7404586;19;20128;-73
2022/12/13 07:30:38;;;;;;;25.07;12.23;;;-10.40;99.90;-10.10;92861.00;;;;7404160;19;20513;-72
2022/12/13 07:33:13;;;;;;;24.67;14.23;;;-10.30;99.90;-10.10;92882.00;;;;7404219;19;20218;-72
2022/12/13 07:35:48;;;;;;;23.50;12.67;;;-10.30;99.90;-9.90;92910.00;;;;7401908;19;20141;-71
2022/12/13 07:38:22;;;;;;;24.43;12.83;;;-10.20;99.90;-9.80;92895.00;;;;7403439;19;20143;-72
2022/12/13 07:40:49;;;;;;;28.30;12.90;;;-10.10;1.00;-9.80;92856.00;;;;7403539;19;20232;-71
2022/12/13 07:43:16;;;;;;;25.50;13.90;;;-10.00;1.00;-9.60;92898.00;;;;7403489;19;20147;-71
2022/12/13 07:45:51;;;;;;;21.63;13.17;;;-9.90;1.00;-9.60;92918.00;;;;7404210;19;20135;-72
2022/12/13 07:48:19;;;;;;;25.07;12.13;;;-9.80;1.00;-9.40;92915.00;;;;7403372;19;20136;-71
2022/12/13 07:50:46;;;;;;;27.50;14.23;;;-9.70;1.00;-9.30;92891.00;;;;7404535;19;20145;-71
2022/12/13 07:53:20;;;;;;;25.73;13.83;;;-9.60;1.00;-9.20;92907.00;;;;7403745;19;20143;-73
2022/12/13 07:55:48;;;;;;;28.90;17.23;;;-9.50;1.00;-9.20;92909.00;;;;7402988;19;20136;-74
2022/12/13 07:58:15;;;;;;;28.00;14.03;;;-9.40;1.00;-9.00;92882.00;;;;7404382;19;20481;-73
2022/12/13 08:00:49;;;;;;;27.43;14.03;;;-9.30;1.00;-9.00;92847.00;;;;7404599;19;20143;-74
2022/12/13 08:03:16;;;;;;;29.17;13.47;;;-9.20;1.00;-8.90;92896.00;;;;7404213;19;20129;-72
2022/12/13 08:05:59;;;;;;;26.73;12.60;;;-9.10;1.00;-8.80;92915.00;;;;7403208;19;20130;-71
2022/12/13 08:08:33;;;;;;;26.13;13.87;;;-9.00;1.00;-8.70;92851.00;;;;7400156;19;20160;-75
2022/12/13 08:11:11;;;;;;;26.07;13.10;;;-9.00;1.00;-8.60;92852.00;;;;7399273;19;20604;-71
2022/12/13 08:13:53;;;;;;;25.83;14.47;;;-8.80;1.00;-8.50;92864.00;;;;7402028;19;20621;-72
2022/12/13 08:16:21;;;;;;;28.13;13.20;;;-8.70;1.00;-8.40;92877.00;;;;7403101;19;20160;-73
2022/12/13 08:18:57;;;;;;;25.13;13.70;;;-8.70;1.00;-8.30;92907.00;;;;7401896;19;20142;-73
2022/12/13 08:21:37;;;;;;;26.00;13.47;;;-8.60;1.00;-8.30;92911.00;;;;7405052;19;20136;-71
2022/12/13 08:24:24;;;;;;;24.93;13.23;;;-8.50;1.00;-8.20;92862.00;;;;7399225;19;20603;-71
2022/12/13 08:26:51;;;;;;;24.47;13.73;;;-8.40;99.90;-8.20;92886.00;;;;7401369;19;20604;-71
2022/12/13 08:29:27;;;;;;;23.50;14.10;;;-8.30;99.90;-8.00;92910.00;;;;7402650;19;20137;-71
2022/12/13 08:32:08;;;;;;;23.80;14.07;;;-8.20;99.90;-7.90;92911.00;;;;7402425;19;20178;-71
2022/12/13 08:34:42;;;;;;;24.90;14.07;;;-8.10;1.40;-7.60;92880.00;;;;7400305;19;20552;-71
2022/12/13 08:37:10;;;;;;;26.37;14.50;;;-8.00;1.00;-7.60;92907.00;;;;7399611;19;20152;-72
2022/12/13 08:39:38;;;;;;;26.90;13.87;;;-7.80;1.00;-7.40;92888.00;;;;7401414;19;20152;-71
2022/12/13 08:42:17;;;;;;;26.70;15.07;;;-7.70;99.90;-7.20;92914.00;;;;7402491;19;20140;-71
2022/12/13 08:44:49;;;;;;;26.13;14.23;;;-7.60;99.90;-7.00;92923.00;;;;7401491;19;20149;-71
2022/12/13 08:47:25;;;;;;;32.40;14.93;;;-7.30;1.00;-6.80;92849.00;;;;7401715;19;20144;-70
2022/12/13 08:49:58;;;;;;;28.10;14.60;;;-7.20;99.90;-6.80;92919.00;;;;7402011;19;20159;-72
2022/12/13 08:52:34;;;;;;;24.70;13.77;;;-7.10;99.90;-6.80;92907.00;;;;7402199;19;20172;-70
2022/12/13 08:55:14;;;;;;;26.53;14.67;;;-7.00;99.90;-6.60;92887.00;;;;7400186;19;20179;-74
2022/12/13 08:58:02;;;;;;;26.07;14.07;;;-7.00;99.90;-6.60;92888.00;;;;7398478;19;20133;-74
2022/12/13 09:00:29;;;;;;;26.83;14.67;;;-6.80;99.90;-6.00;92862.00;;;;7400515;19;20156;-72
2022/12/13 09:03:05;;;;;;;24.90;13.70;;;-6.70;60.20;-5.80;92888.00;;;;7402703;19;20165;-73
2022/12/13 09:05:37;;;;;;;32.00;15.50;;;;;-5.50;92901.00;;;;7402386;19;20244;-73
2022/12/13 09:08:12;;;;;;;26.70;15.00;;;-6.30;1.00;-5.40;92879.00;;;;7403341;19;20148;-73
2022/12/13 09:11:02;;;;;;;22.43;13.33;;;-6.00;1.00;-5.50;92769.00;;;;7403641;19;20141;-73
2022/12/13 09:13:57;;;;;;;26.90;14.13;;;-5.90;99.90;-5.70;92933.00;;;;7398617;19;20588;-72
2022/12/13 09:16:29;;;;;;;23.67;13.40;;;-6.00;99.90;-5.40;92739.00;;;;7400698;19;20482;-72
2022/12/13 09:19:06;;;;;;;29.20;15.43;;;-6.00;99.90;-5.20;92877.00;;;;7402220;19;20137;-73
2022/12/13 09:21:52;;;;;;;24.40;13.93;;;-6.00;99.90;-4.70;92842.00;;;;7401790;19;20666;-73
2022/12/13 09:24:29;;;;;;;25.67;15.13;;;-5.70;99.90;-4.70;92852.00;;;;7403629;19;20195;-71
2022/12/13 09:27:04;;;;;;;25.57;14.50;;;-5.40;99.90;-4.50;92882.00;;;;7401268;19;20195;-72
2022/12/13 09:29:54;;;;;;;23.27;14.53;;;-5.10;20.60;-3.90;92876.00;;;;7399338;19;20223;-72
2022/12/13 09:32:23;;;;;;;27.93;15.33;;;-4.80;99.90;-4.20;92904.00;;;;7400297;19;20129;-72
2022/12/13 09:34:58;;;;;;;27.20;13.97;;;-4.60;1.00;-4.20;92928.00;;;;7399909;19;20650;-71
2022/12/13 09:37:26;;;;;;;24.37;14.47;;;-4.50;1.00;-3.90;92911.00;;;;7399520;19;20155;-71
2022/12/13 09:39:53;;;;;;;24.33;14.03;;;-4.40;99.90;-3.50;92919.00;;;;7399543;19;20121;-72
2022/12/13 09:42:52;;;;;;;23.70;13.93;;;-4.30;77.10;-3.70;92913.00;;;;7401982;19;20527;-72
2022/12/13 09:45:46;;;;;;;22.47;12.57;;;-4.10;1.00;-3.90;92896.00;;;;7400044;19;20136;-72
2022/12/13 09:48:28;;;;;;;22.90;12.53;;;-4.10;1.00;-3.80;92904.00;;;;7399689;19;20172;-72
2022/12/13 09:51:02;;;;;;;20.40;12.13;;;-4.10;1.00;-3.80;92921.00;;;;7398569;19;20140;-73
2022/12/13 09:53:54;;;;;;;20.30;11.47;;;-4.20;1.00;-3.80;92916.00;;;;7401276;19;20188;-72
2022/12/13 09:56:25;;;;;;;20.13;11.73;;;-4.20;1.00;-3.80;92868.00;;;;7399476;19;20133;-73
2022/12/13 09:58:59;;;;;;;23.17;12.63;;;-4.10;1.00;-3.10;92912.00;;;;7399684;19;20144;-71
2022/12/13 10:01:26;;;;;;;18.63;11.37;;;-3.90;1.00;-2.90;92908.00;;;;7400391;19;20240;-72
2022/12/13 10:03:59;;;;;;;18.67;11.23;;;-3.60;99.90;-3.10;92857.00;;;;7399218;19;20125;-73
2022/12/13 10:06:36;;;;;;;18.40;11.43;;;-3.70;99.90;-3.50;92874.00;;;;7400073;19;20143;-72
2022/12/13 10:09:09;;;;;;;16.00;10.57;;;-3.60;99.90;-3.50;92906.00;;;;7399595;19;20133;-72
2022/12/13 10:11:59;;;;;;;17.67;11.43;;;-3.70;99.90;-3.50;92894.00;;;;7399094;19;20148;-72
2022/12/13 10:14:39;;;;;;;19.63;11.37;;;-3.70;99.90;-3.40;92882.00;;;;7396145;19;20168;-71
2022/12/13 10:17:20;;;;;;;19.53;11.03;;;-3.70;99.90;-3.10;92859.00;;;;7399717;19;20163;-71
2022/12/13 10:19:51;;;;;;;17.90;10.10;;;-3.70;99.90;-2.80;92843.00;;;;7398808;19;20159;-70
2022/12/13 10:22:25;;;;;;;17.20;9.50;;;-3.70;99.90;-3.10;92877.00;;;;7399404;19;20151;-72
2022/12/13 10:25:02;;;;;;;20.23;11.10;;;-3.70;99.90;-2.80;92858.00;;;;7399078;19;20160;-72
2022/12/13 10:27:46;;;;;;;17.03;10.07;;;-3.60;1.00;-2.50;92890.00;;;;7399602;19;20157;-73
2022/12/13 10:30:23;;;;;;;16.90;10.23;;;-3.40;99.90;-2.80;92878.00;;;;7399527;19;20144;-72
2022/12/13 10:33:04;;;;;;;17.17;10.93;;;-3.40;99.90;-2.80;92867.00;;;;7399252;19;20149;-72
2022/12/13 10:35:36;;;;;;;17.47;10.37;;;-3.20;99.90;-2.40;92877.00;;;;7398618;19;20150;-72
2022/12/13 10:38:23;;;;;;;16.87;9.93;;;-3.10;99.90;-2.10;92871.00;;;;7397111;19;20127;-71
2022/12/13 10:40:58;;;;;;;20.80;11.60;;;-3.10;99.90;-2.10;92886.00;;;;7399612;19;20156;-71
2022/12/13 10:43:34;;;;;;;12.70;8.67;;;-3.00;99.90;-1.90;92873.00;;;;7395495;19;20144;-71
2022/12/13 10:46:04;;;;;;;16.13;8.30;;;-3.00;99.90;-2.10;92820.00;;;;7399379;19;20141;-71
2022/12/13 10:48:47;;;;;;;18.43;9.70;;;-2.90;99.90;-1.90;92841.00;;;;7396026;19;20176;-72
2022/12/13 10:51:22;;;;;;;10.33;6.93;;;-2.90;99.90;-2.30;92763.00;;;;7396991;19;20149;-72
2022/12/13 10:53:59;;;;;;;14.53;7.63;;;-2.90;59.90;-2.50;92833.00;;;;7398813;19;20159;-72
2022/12/13 10:56:49;;;;;;;15.33;8.10;;;-3.20;79.60;-2.60;92852.00;;;;7396003;19;20152;-71
2022/12/13 10:59:36;;;;;;;13.60;8.57;;;-3.20;79.40;-2.60;92849.00;;;;7397353;19;20124;-70
2022/12/13 11:02:37;;;;;;;14.77;8.13;;;-3.30;99.90;-2.40;92850.00;;;;7395585;19;20212;-72
2022/12/13 11:05:31;;;;;;;13.40;8.33;;;-3.30;99.90;-2.00;92852.00;;;;7395660;19;20608;-72
2022/12/13 11:08:27;;;;;;;14.40;9.17;;;-3.10;99.90;-1.80;92867.00;;;;7396714;19;20145;-70
2022/12/13 11:11:04;;;;;;;14.67;8.53;;;-3.00;99.90;-2.10;92851.00;;;;7396685;19;20508;-70
2022/12/13 11:14:04;;;;;;;15.57;8.93;;;-3.10;99.90;-2.30;92876.00;;;;7394269;19;20192;-71
2022/12/13 11:16:40;;;;;;;13.37;7.77;;;-3.40;48.20;-3.00;92872.00;;;;7394668;19;20608;-71
2022/12/13 11:19:23;;;;;;;19.57;9.37;;;-3.50;99.90;-3.40;92834.00;;;;7395153;19;20808;-71
2022/12/13 11:21:53;;;;;;;13.53;8.60;;;-3.50;99.90;-2.50;92870.00;;;;7397117;19;20163;-71